sensor_id;sensor_type;location;lat;lon;timestamp;pressure;altitude;pressure_sealevel;temperature;humidity
34205;BME280;20471;49.680;20.074;2023-06-14T00:00:33;97084.14;;;6.69;71.84
34205;BME280;20471;49.680;20.074;2023-06-14T00:03:20;97082.07;;;6.68;71.88
34205;BME280;20471;49.680;20.074;2023-06-14T00:05:48;97083.00;;;6.66;72.03
34205;BME280;20471;49.680;20.074;2023-06-14T00:08:15;97084.09;;;6.62;72.10
34205;BME280;20471;49.680;20.074;2023-06-14T00:10:42;97078.23;;;6.62;72.30
34205;BME280;20471;49.680;20.074;2023-06-14T00:13:09;97078.95;;;6.62;72.16
34205;BME280;20471;49.680;20.074;2023-06-14T00:15:36;97077.02;;;6.60;72.15
34205;BME280;20471;49.680;20.074;2023-06-14T00:18:04;97075.83;;;6.60;72.18
34205;BME280;20471;49.680;20.074;2023-06-14T00:20:32;97077.48;;;6.61;72.30
34205;BME280;20471;49.680;20.074;2023-06-14T00:23:00;97076.59;;;6.62;72.31
34205;BME280;20471;49.680;20.074;2023-06-14T00:25:28;97076.10;;;6.62;72.29
34205;BME280;20471;49.680;20.074;2023-06-14T00:27:57;97079.23;;;6.61;72.42
34205;BME280;20471;49.680;20.074;2023-06-14T00:30:25;97076.10;;;6.59;72.45
34205;BME280;20471;49.680;20.074;2023-06-14T00:32:56;97075.10;;;6.57;72.47
34205;BME280;20471;49.680;20.074;2023-06-14T00:35:23;97071.59;;;6.52;72.48
34205;BME280;20471;49.680;20.074;2023-06-14T00:37:50;97066.34;;;6.50;72.72
34205;BME280;20471;49.680;20.074;2023-06-14T00:40:17;97066.58;;;6.49;72.75
34205;BME280;20471;49.680;20.074;2023-06-14T00:42:43;97063.83;;;6.50;72.86
34205;BME280;20471;49.680;20.074;2023-06-14T00:45:10;97066.23;;;6.46;72.95
34205;BME280;20471;49.680;20.074;2023-06-14T00:47:37;97064.33;;;6.43;73.11
34205;BME280;20471;49.680;20.074;2023-06-14T00:50:09;97060.92;;;6.45;73.23
34205;BME280;20471;49.680;20.074;2023-06-14T00:52:36;97061.60;;;6.46;73.19
34205;BME280;20471;49.680;20.074;2023-06-14T00:55:03;97062.67;;;6.46;73.12
34205;BME280;20471;49.680;20.074;2023-06-14T00:57:30;97060.80;;;6.44;73.18
34205;BME280;20471;49.680;20.074;2023-06-14T00:59:57;97066.91;;;6.40;73.10
34205;BME280;20471;49.680;20.074;2023-06-14T01:02:25;97064.39;;;6.39;73.17
34205;BME280;20471;49.680;20.074;2023-06-14T01:04:52;97061.38;;;6.38;73.22
34205;BME280;20471;49.680;20.074;2023-06-14T01:07:41;97058.89;;;6.37;73.22
34205;BME280;20471;49.680;20.074;2023-06-14T01:15:36;97060.35;;;6.31;73.47
34205;BME280;20471;49.680;20.074;2023-06-14T01:18:04;97055.34;;;6.30;73.61
34205;BME280;20471;49.680;20.074;2023-06-14T01:20:32;97055.59;;;6.29;73.79
34205;BME280;20471;49.680;20.074;2023-06-14T01:23:02;97059.02;;;6.25;73.77
34205;BME280;20471;49.680;20.074;2023-06-14T01:25:29;97057.29;;;6.20;73.79
34205;BME280;20471;49.680;20.074;2023-06-14T01:28:05;97058.39;;;6.20;73.96
34205;BME280;20471;49.680;20.074;2023-06-14T01:30:37;97059.23;;;6.20;74.07
34205;BME280;20471;49.680;20.074;2023-06-14T01:33:05;97056.91;;;6.20;74.12
34205;BME280;20471;49.680;20.074;2023-06-14T01:35:31;97058.85;;;6.20;74.10
34205;BME280;20471;49.680;20.074;2023-06-14T01:37:59;97061.96;;;6.21;74.20
34205;BME280;20471;49.680;20.074;2023-06-14T01:40:27;97062.33;;;6.24;74.43
34205;BME280;20471;49.680;20.074;2023-06-14T01:42:54;97063.83;;;6.26;74.50
34205;BME280;20471;49.680;20.074;2023-06-14T01:45:21;97059.36;;;6.25;74.54
34205;BME280;20471;49.680;20.074;2023-06-14T01:47:49;97055.45;;;6.25;74.71
34205;BME280;20471;49.680;20.074;2023-06-14T01:50:19;97052.34;;;6.28;74.78
34205;BME280;20471;49.680;20.074;2023-06-14T01:52:46;97053.70;;;6.31;74.79
34205;BME280;20471;49.680;20.074;2023-06-14T01:55:13;97052.17;;;6.31;75.02
34205;BME280;20471;49.680;20.074;2023-06-14T01:57:41;97049.65;;;6.29;75.21
34205;BME280;20471;49.680;20.074;2023-06-14T02:00:08;97043.58;;;6.32;75.42
34205;BME280;20471;49.680;20.074;2023-06-14T02:02:38;97046.44;;;6.34;75.55
34205;BME280;20471;49.680;20.074;2023-06-14T02:05:05;97049.01;;;6.35;75.50
34205;BME280;20471;49.680;20.074;2023-06-14T02:07:32;97052.55;;;6.38;75.62
34205;BME280;20471;49.680;20.074;2023-06-14T02:09:59;97051.16;;;6.41;75.47
34205;BME280;20471;49.680;20.074;2023-06-14T02:12:26;97045.58;;;6.44;75.56
34205;BME280;20471;49.680;20.074;2023-06-14T02:14:52;97044.25;;;6.47;75.65
34205;BME280;20471;49.680;20.074;2023-06-14T02:17:20;97051.83;;;6.50;75.95
34205;BME280;20471;49.680;20.074;2023-06-14T02:19:46;97051.84;;;6.54;75.94
34205;BME280;20471;49.680;20.074;2023-06-14T02:22:13;97052.59;;;6.60;76.11
34205;BME280;20471;49.680;20.074;2023-06-14T02:24:41;97053.23;;;6.64;76.14
34205;BME280;20471;49.680;20.074;2023-06-14T02:27:08;97051.48;;;6.68;76.15
34205;BME280;20471;49.680;20.074;2023-06-14T02:29:36;97053.94;;;6.73;76.16
34205;BME280;20471;49.680;20.074;2023-06-14T02:32:06;97051.74;;;6.76;76.15
34205;BME280;20471;49.680;20.074;2023-06-14T02:34:34;97055.14;;;6.81;76.17
34205;BME280;20471;49.680;20.074;2023-06-14T02:37:01;97060.61;;;6.85;76.05
34205;BME280;20471;49.680;20.074;2023-06-14T02:39:29;97062.02;;;6.88;76.15
34205;BME280;20471;49.680;20.074;2023-06-14T02:41:56;97060.88;;;6.90;76.26
34205;BME280;20471;49.680;20.074;2023-06-14T02:44:25;97057.81;;;6.88;76.18
34205;BME280;20471;49.680;20.074;2023-06-14T02:46:53;97059.73;;;6.91;76.30
34205;BME280;20471;49.680;20.074;2023-06-14T02:49:22;97054.77;;;6.94;76.40
34205;BME280;20471;49.680;20.074;2023-06-14T02:51:49;97052.48;;;6.98;76.56
34205;BME280;20471;49.680;20.074;2023-06-14T02:54:15;97051.83;;;7.02;76.55
34205;BME280;20471;49.680;20.074;2023-06-14T02:56:42;97050.56;;;7.03;76.53
34205;BME280;20471;49.680;20.074;2023-06-14T02:59:09;97054.13;;;7.05;76.56
34205;BME280;20471;49.680;20.074;2023-06-14T03:01:36;97053.53;;;7.08;76.45
34205;BME280;20471;49.680;20.074;2023-06-14T03:04:07;97051.88;;;7.11;76.63
34205;BME280;20471;49.680;20.074;2023-06-14T03:06:34;97051.95;;;7.14;76.65
34205;BME280;20471;49.680;20.074;2023-06-14T03:09:03;97050.52;;;7.17;76.72
34205;BME280;20471;49.680;20.074;2023-06-14T03:11:31;97044.47;;;7.20;76.77
34205;BME280;20471;49.680;20.074;2023-06-14T03:13:58;97047.23;;;7.20;76.65
34205;BME280;20471;49.680;20.074;2023-06-14T03:16:25;97045.63;;;7.19;76.66
34205;BME280;20471;49.680;20.074;2023-06-14T03:18:54;97041.13;;;7.19;76.65
34205;BME280;20471;49.680;20.074;2023-06-14T03:21:21;97038.26;;;7.22;76.77
34205;BME280;20471;49.680;20.074;2023-06-14T03:23:48;97036.81;;;7.26;76.87
34205;BME280;20471;49.680;20.074;2023-06-14T03:26:15;97034.86;;;7.30;76.77
34205;BME280;20471;49.680;20.074;2023-06-14T03:28:44;97034.77;;;7.32;76.82
34205;BME280;20471;49.680;20.074;2023-06-14T03:31:12;97036.70;;;7.34;76.72
34205;BME280;20471;49.680;20.074;2023-06-14T03:33:39;97041.87;;;7.35;76.73
34205;BME280;20471;49.680;20.074;2023-06-14T03:36:06;97038.71;;;7.37;76.80
34205;BME280;20471;49.680;20.074;2023-06-14T03:38:33;97038.61;;;7.41;76.68
34205;BME280;20471;49.680;20.074;2023-06-14T03:41:00;97040.26;;;7.45;76.78
34205;BME280;20471;49.680;20.074;2023-06-14T03:43:27;97037.81;;;7.48;76.97
34205;BME280;20471;49.680;20.074;2023-06-14T03:45:56;97038.28;;;7.51;76.97
34205;BME280;20471;49.680;20.074;2023-06-14T03:48:23;97041.87;;;7.57;77.14
34205;BME280;20471;49.680;20.074;2023-06-14T03:50:49;97043.40;;;7.63;77.14
34205;BME280;20471;49.680;20.074;2023-06-14T03:53:16;97045.01;;;7.69;77.11
34205;BME280;20471;49.680;20.074;2023-06-14T03:55:43;97044.05;;;7.74;77.23
34205;BME280;20471;49.680;20.074;2023-06-14T03:58:10;97046.64;;;7.79;77.04
34205;BME280;20471;49.680;20.074;2023-06-14T04:00:39;97045.59;;;7.83;76.84
34205;BME280;20471;49.680;20.074;2023-06-14T04:03:06;97046.41;;;7.86;76.76
34205;BME280;20471;49.680;20.074;2023-06-14T04:05:33;97046.41;;;7.89;76.78
34205;BME280;20471;49.680;20.074;2023-06-14T04:07:59;97044.65;;;7.91;76.83
34205;BME280;20471;49.680;20.074;2023-06-14T04:10:26;97046.16;;;7.95;76.66
34205;BME280;20471;49.680;20.074;2023-06-14T04:12:53;97049.36;;;7.98;76.63
34205;BME280;20471;49.680;20.074;2023-06-14T04:15:20;97052.27;;;7.95;76.75
34205;BME280;20471;49.680;20.074;2023-06-14T04:17:47;97054.38;;;7.92;76.92
34205;BME280;20471;49.680;20.074;2023-06-14T04:20:14;97053.34;;;7.92;76.88
34205;BME280;20471;49.680;20.074;2023-06-14T04:22:41;97053.92;;;7.93;76.99
34205;BME280;20471;49.680;20.074;2023-06-14T04:25:09;97055.11;;;7.98;76.84
34205;BME280;20471;49.680;20.074;2023-06-14T04:27:37;97057.98;;;8.02;76.72
34205;BME280;20471;49.680;20.074;2023-06-14T04:30:04;97060.15;;;8.05;76.64
34205;BME280;20471;49.680;20.074;2023-06-14T04:32:31;97061.52;;;8.09;76.82
34205;BME280;20471;49.680;20.074;2023-06-14T04:35:07;97060.08;;;8.13;76.98
34205;BME280;20471;49.680;20.074;2023-06-14T04:37:34;97057.27;;;8.15;77.05
34205;BME280;20471;49.680;20.074;2023-06-14T04:40:06;97051.86;;;8.15;76.89
34205;BME280;20471;49.680;20.074;2023-06-14T04:42:33;97051.85;;;8.19;76.79
34205;BME280;20471;49.680;20.074;2023-06-14T04:45:03;97054.35;;;8.27;76.93
34205;BME280;20471;49.680;20.074;2023-06-14T04:47:29;97056.73;;;8.35;76.98
34205;BME280;20471;49.680;20.074;2023-06-14T04:49:59;97058.69;;;8.43;76.81
34205;BME280;20471;49.680;20.074;2023-06-14T04:52:26;97055.55;;;8.49;76.66
34205;BME280;20471;49.680;20.074;2023-06-14T04:54:55;97057.79;;;8.58;76.64
34205;BME280;20471;49.680;20.074;2023-06-14T04:57:22;97056.25;;;8.65;76.65
34205;BME280;20471;49.680;20.074;2023-06-14T04:59:51;97057.82;;;8.72;76.60
34205;BME280;20471;49.680;20.074;2023-06-14T05:02:24;97061.91;;;8.80;76.42
34205;BME280;20471;49.680;20.074;2023-06-14T05:04:51;97063.61;;;8.86;76.42
34205;BME280;20471;49.680;20.074;2023-06-14T05:07:18;97062.79;;;8.91;76.64
34205;BME280;20471;49.680;20.074;2023-06-14T05:09:46;97062.23;;;8.97;76.46
34205;BME280;20471;49.680;20.074;2023-06-14T05:12:12;97063.54;;;9.05;76.45
34205;BME280;20471;49.680;20.074;2023-06-14T05:14:39;97060.77;;;9.07;76.33
34205;BME280;20471;49.680;20.074;2023-06-14T05:17:06;97059.34;;;9.13;76.28
34205;BME280;20471;49.680;20.074;2023-06-14T05:19:33;97058.99;;;9.21;76.42
34205;BME280;20471;49.680;20.074;2023-06-14T05:21:59;97057.27;;;9.29;76.41
34205;BME280;20471;49.680;20.074;2023-06-14T05:24:26;97054.05;;;9.38;76.26
34205;BME280;20471;49.680;20.074;2023-06-14T05:26:54;97057.91;;;9.48;76.35
34205;BME280;20471;49.680;20.074;2023-06-14T05:29:21;97059.54;;;9.58;76.20
34205;BME280;20471;49.680;20.074;2023-06-14T05:31:48;97060.69;;;9.67;76.22
34205;BME280;20471;49.680;20.074;2023-06-14T05:34:15;97064.23;;;9.73;76.11
34205;BME280;20471;49.680;20.074;2023-06-14T05:36:41;97066.58;;;9.80;76.20
34205;BME280;20471;49.680;20.074;2023-06-14T05:39:08;97068.79;;;9.86;76.24
34205;BME280;20471;49.680;20.074;2023-06-14T05:41:36;97061.98;;;9.92;76.30
34205;BME280;20471;49.680;20.074;2023-06-14T05:44:03;97059.30;;;9.98;76.33
34205;BME280;20471;49.680;20.074;2023-06-14T05:46:29;97057.42;;;10.07;76.70
34205;BME280;20471;49.680;20.074;2023-06-14T05:48:56;97056.92;;;10.16;76.60
34205;BME280;20471;49.680;20.074;2023-06-14T05:51:24;97061.27;;;10.21;76.31
34205;BME280;20471;49.680;20.074;2023-06-14T05:53:51;97062.84;;;10.27;76.51
34205;BME280;20471;49.680;20.074;2023-06-14T05:56:18;97061.56;;;10.35;76.54
34205;BME280;20471;49.680;20.074;2023-06-14T05:58:46;97061.80;;;10.42;76.26
34205;BME280;20471;49.680;20.074;2023-06-14T06:01:13;97063.16;;;10.49;76.37
34205;BME280;20471;49.680;20.074;2023-06-14T06:03:41;97061.15;;;10.56;76.22
34205;BME280;20471;49.680;20.074;2023-06-14T06:06:12;97060.42;;;10.61;76.12
34205;BME280;20471;49.680;20.074;2023-06-14T06:08:39;97064.38;;;10.67;75.91
34205;BME280;20471;49.680;20.074;2023-06-14T06:11:06;97065.98;;;10.71;75.65
34205;BME280;20471;49.680;20.074;2023-06-14T06:13:33;97065.60;;;10.72;75.63
34205;BME280;20471;49.680;20.074;2023-06-14T06:16:02;97065.91;;;10.79;75.71
34205;BME280;20471;49.680;20.074;2023-06-14T06:18:29;97063.96;;;10.87;75.54
34205;BME280;20471;49.680;20.074;2023-06-14T06:20:56;97067.80;;;10.95;75.32
34205;BME280;20471;49.680;20.074;2023-06-14T06:23:23;97070.52;;;11.03;75.27
34205;BME280;20471;49.680;20.074;2023-06-14T06:25:50;97072.95;;;11.09;75.19
34205;BME280;20471;49.680;20.074;2023-06-14T06:28:16;97073.15;;;11.16;75.05
34205;BME280;20471;49.680;20.074;2023-06-14T06:30:43;97073.41;;;11.25;74.88
34205;BME280;20471;49.680;20.074;2023-06-14T06:33:10;97075.25;;;11.32;74.67
34205;BME280;20471;49.680;20.074;2023-06-14T06:35:37;97078.21;;;11.39;74.39
34205;BME280;20471;49.680;20.074;2023-06-14T06:38:04;97078.83;;;11.43;74.37
34205;BME280;20471;49.680;20.074;2023-06-14T06:40:31;97080.83;;;11.47;74.56
34205;BME280;20471;49.680;20.074;2023-06-14T06:42:58;97082.35;;;11.51;74.47
34205;BME280;20471;49.680;20.074;2023-06-14T06:45:24;97083.55;;;11.56;74.23
34205;BME280;20471;49.680;20.074;2023-06-14T06:47:51;97085.55;;;11.62;74.38
34205;BME280;20471;49.680;20.074;2023-06-14T06:50:18;97088.40;;;11.68;74.62
34205;BME280;20471;49.680;20.074;2023-06-14T06:52:45;97087.66;;;11.75;74.52
34205;BME280;20471;49.680;20.074;2023-06-14T06:55:12;97088.88;;;11.80;74.35
34205;BME280;20471;49.680;20.074;2023-06-14T06:57:39;97093.95;;;11.83;74.17
34205;BME280;20471;49.680;20.074;2023-06-14T07:00:07;97090.61;;;11.88;74.03
34205;BME280;20471;49.680;20.074;2023-06-14T07:02:36;97088.69;;;11.93;73.73
34205;BME280;20471;49.680;20.074;2023-06-14T07:05:04;97091.64;;;11.93;73.84
34205;BME280;20471;49.680;20.074;2023-06-14T07:07:30;97093.08;;;11.95;73.97
34205;BME280;20471;49.680;20.074;2023-06-14T07:09:57;97097.52;;;11.97;73.94
34205;BME280;20471;49.680;20.074;2023-06-14T07:12:24;97097.80;;;11.98;73.86
34205;BME280;20471;49.680;20.074;2023-06-14T07:14:51;97101.95;;;11.99;73.94
34205;BME280;20471;49.680;20.074;2023-06-14T07:17:18;97103.42;;;12.07;74.03
34205;BME280;20471;49.680;20.074;2023-06-14T07:19:45;97103.39;;;12.13;73.86
34205;BME280;20471;49.680;20.074;2023-06-14T07:22:12;97104.98;;;12.18;73.77
34205;BME280;20471;49.680;20.074;2023-06-14T07:24:38;97104.01;;;12.22;73.71
34205;BME280;20471;49.680;20.074;2023-06-14T07:27:06;97105.84;;;12.25;73.74
34205;BME280;20471;49.680;20.074;2023-06-14T07:29:33;97107.89;;;12.29;73.80
34205;BME280;20471;49.680;20.074;2023-06-14T07:32:00;97114.15;;;12.33;73.82
34205;BME280;20471;49.680;20.074;2023-06-14T07:34:28;97116.27;;;12.33;74.01
34205;BME280;20471;49.680;20.074;2023-06-14T07:36:54;97117.89;;;12.29;74.18
34205;BME280;20471;49.680;20.074;2023-06-14T07:39:21;97117.61;;;12.27;74.59
34205;BME280;20471;49.680;20.074;2023-06-14T07:41:48;97115.73;;;12.29;74.84
34205;BME280;20471;49.680;20.074;2023-06-14T07:44:15;97117.63;;;12.29;74.85
34205;BME280;20471;49.680;20.074;2023-06-14T07:46:42;97118.14;;;12.28;74.95
34205;BME280;20471;49.680;20.074;2023-06-14T07:49:09;97119.23;;;12.24;75.03
34205;BME280;20471;49.680;20.074;2023-06-14T07:51:36;97121.84;;;12.25;75.30
34205;BME280;20471;49.680;20.074;2023-06-14T07:54:03;97124.67;;;12.25;75.58
34205;BME280;20471;49.680;20.074;2023-06-14T07:56:33;97126.08;;;12.26;75.77
34205;BME280;20471;49.680;20.074;2023-06-14T07:58:59;97125.67;;;12.28;75.85
34205;BME280;20471;49.680;20.074;2023-06-14T08:01:27;97125.19;;;12.33;76.02
34205;BME280;20471;49.680;20.074;2023-06-14T08:03:54;97121.58;;;12.35;76.19
34205;BME280;20471;49.680;20.074;2023-06-14T08:06:21;97122.06;;;12.37;76.31
34205;BME280;20471;49.680;20.074;2023-06-14T08:08:48;97122.36;;;12.42;76.41
34205;BME280;20471;49.680;20.074;2023-06-14T08:11:14;97120.13;;;12.49;76.43
34205;BME280;20471;49.680;20.074;2023-06-14T08:13:41;97115.09;;;12.58;76.38
34205;BME280;20471;49.680;20.074;2023-06-14T08:16:08;97112.95;;;12.65;76.49
34205;BME280;20471;49.680;20.074;2023-06-14T08:18:36;97116.52;;;12.74;76.69
34205;BME280;20471;49.680;20.074;2023-06-14T08:21:03;97115.24;;;12.83;76.56
34205;BME280;20471;49.680;20.074;2023-06-14T08:23:30;97113.80;;;12.90;76.37
34205;BME280;20471;49.680;20.074;2023-06-14T08:25:57;97117.46;;;12.98;76.18
34205;BME280;20471;49.680;20.074;2023-06-14T08:28:24;97119.71;;;13.03;76.17
34205;BME280;20471;49.680;20.074;2023-06-14T08:30:51;97115.25;;;13.05;76.16
34205;BME280;20471;49.680;20.074;2023-06-14T08:33:18;97117.45;;;13.08;76.11
34205;BME280;20471;49.680;20.074;2023-06-14T08:35:44;97116.23;;;13.12;76.03
34205;BME280;20471;49.680;20.074;2023-06-14T08:38:11;97117.13;;;13.16;76.08
34205;BME280;20471;49.680;20.074;2023-06-14T08:40:39;97121.02;;;13.24;76.00
34205;BME280;20471;49.680;20.074;2023-06-14T08:43:07;97123.70;;;13.32;76.07
34205;BME280;20471;49.680;20.074;2023-06-14T08:45:34;97125.59;;;13.39;75.94
34205;BME280;20471;49.680;20.074;2023-06-14T08:48:01;97125.13;;;13.43;75.78
34205;BME280;20471;49.680;20.074;2023-06-14T08:50:30;97128.25;;;13.46;75.84
34205;BME280;20471;49.680;20.074;2023-06-14T08:53:00;97129.84;;;13.50;75.76
34205;BME280;20471;49.680;20.074;2023-06-14T08:55:31;97132.24;;;13.53;75.84
34205;BME280;20471;49.680;20.074;2023-06-14T08:57:59;97134.08;;;13.59;75.97
34205;BME280;20471;49.680;20.074;2023-06-14T09:00:27;97137.85;;;13.68;75.76
34205;BME280;20471;49.680;20.074;2023-06-14T09:02:55;97138.14;;;13.77;75.73
34205;BME280;20471;49.680;20.074;2023-06-14T09:05:24;97136.41;;;13.83;75.60
34205;BME280;20471;49.680;20.074;2023-06-14T09:07:52;97143.15;;;13.90;75.34
34205;BME280;20471;49.680;20.074;2023-06-14T09:10:21;97145.77;;;13.95;75.35
34205;BME280;20471;49.680;20.074;2023-06-14T09:12:49;97144.42;;;13.98;75.10
34205;BME280;20471;49.680;20.074;2023-06-14T09:15:15;97140.34;;;13.95;74.89
34205;BME280;20471;49.680;20.074;2023-06-14T09:17:43;97140.34;;;13.95;75.15
34205;BME280;20471;49.680;20.074;2023-06-14T09:20:10;97137.20;;;13.98;75.08
34205;BME280;20471;49.680;20.074;2023-06-14T09:22:39;97137.94;;;13.99;75.19
34205;BME280;20471;49.680;20.074;2023-06-14T09:25:07;97137.58;;;13.98;75.31
34205;BME280;20471;49.680;20.074;2023-06-14T09:27:34;97137.45;;;13.99;75.17
34205;BME280;20471;49.680;20.074;2023-06-14T09:30:04;97135.02;;;14.08;75.49
34205;BME280;20471;49.680;20.074;2023-06-14T09:32:32;97134.83;;;14.26;75.64
34205;BME280;20471;49.680;20.074;2023-06-14T09:35:03;97132.36;;;14.63;75.76
34205;BME280;20471;49.680;20.074;2023-06-14T09:37:31;97131.18;;;15.03;75.19
34205;BME280;20471;49.680;20.074;2023-06-14T09:39:59;97126.34;;;15.26;74.99
34205;BME280;20471;49.680;20.074;2023-06-14T09:42:26;97128.70;;;15.40;74.47
34205;BME280;20471;49.680;20.074;2023-06-14T09:44:55;97129.30;;;15.51;73.68
34205;BME280;20471;49.680;20.074;2023-06-14T09:47:23;97127.28;;;15.64;73.53
34205;BME280;20471;49.680;20.074;2023-06-14T09:49:51;97126.98;;;15.76;73.69
34205;BME280;20471;49.680;20.074;2023-06-14T09:52:21;97123.20;;;16.04;73.35
34205;BME280;20471;49.680;20.074;2023-06-14T09:54:49;97122.76;;;16.38;72.95
34205;BME280;20471;49.680;20.074;2023-06-14T09:57:21;97121.92;;;16.65;72.45
34205;BME280;20471;49.680;20.074;2023-06-14T09:59:48;97123.23;;;16.85;72.18
34205;BME280;20471;49.680;20.074;2023-06-14T10:02:27;97124.80;;;17.09;72.16
34205;BME280;20471;49.680;20.074;2023-06-14T10:05:03;97128.98;;;17.67;72.05
34205;BME280;20471;49.680;20.074;2023-06-14T10:10:04;97132.00;;;18.77;70.35
34205;BME280;20471;49.680;20.074;2023-06-14T10:12:32;97120.75;;;19.17;69.47
34205;BME280;20471;49.680;20.074;2023-06-14T10:15:00;97116.71;;;19.47;68.68
34205;BME280;20471;49.680;20.074;2023-06-14T10:17:42;97113.83;;;19.81;68.11
34205;BME280;20471;49.680;20.074;2023-06-14T10:23:17;97118.20;;;20.55;65.94
34205;BME280;20471;49.680;20.074;2023-06-14T10:25:50;97112.02;;;20.73;65.15
34205;BME280;20471;49.680;20.074;2023-06-14T10:28:18;97109.00;;;20.71;64.11
34205;BME280;20471;49.680;20.074;2023-06-14T10:31:02;97107.88;;;20.55;63.38
34205;BME280;20471;49.680;20.074;2023-06-14T10:33:31;97109.90;;;20.32;62.76
34205;BME280;20471;49.680;20.074;2023-06-14T10:36:31;97110.99;;;20.15;62.42
34205;BME280;20471;49.680;20.074;2023-06-14T10:41:35;97109.48;;;20.20;62.52
34205;BME280;20471;49.680;20.074;2023-06-14T10:46:53;97098.58;;;20.72;62.28
34205;BME280;20471;49.680;20.074;2023-06-14T10:52:05;97091.88;;;21.05;60.77
34205;BME280;20471;49.680;20.074;2023-06-14T10:54:32;97091.71;;;20.90;60.86
34205;BME280;20471;49.680;20.074;2023-06-14T10:57:06;97088.52;;;20.90;60.57
34205;BME280;20471;49.680;20.074;2023-06-14T10:59:33;97082.21;;;20.97;60.58
34205;BME280;20471;49.680;20.074;2023-06-14T11:04:50;97074.31;;;21.64;60.03
34205;BME280;20471;49.680;20.074;2023-06-14T11:12:54;97079.33;;;22.19;58.50
34205;BME280;20471;49.680;20.074;2023-06-14T11:15:28;97077.08;;;22.40;57.82
34205;BME280;20471;49.680;20.074;2023-06-14T11:17:57;97074.11;;;22.60;57.34
34205;BME280;20471;49.680;20.074;2023-06-14T11:20:29;97075.32;;;22.70;56.81
34205;BME280;20471;49.680;20.074;2023-06-14T11:22:57;97072.79;;;22.94;56.24
34205;BME280;20471;49.680;20.074;2023-06-14T11:25:24;97070.31;;;23.17;55.64
34205;BME280;20471;49.680;20.074;2023-06-14T11:27:52;97064.98;;;23.33;54.59
34205;BME280;20471;49.680;20.074;2023-06-14T11:30:19;97063.92;;;23.54;54.14
34205;BME280;20471;49.680;20.074;2023-06-14T11:32:50;97060.23;;;23.76;53.58
34205;BME280;20471;49.680;20.074;2023-06-14T11:35:19;97056.52;;;23.89;52.72
34205;BME280;20471;49.680;20.074;2023-06-14T11:37:48;97050.34;;;23.99;52.23
34205;BME280;20471;49.680;20.074;2023-06-14T11:40:15;97047.30;;;24.08;51.90
34205;BME280;20471;49.680;20.074;2023-06-14T11:42:42;97046.48;;;24.16;51.61
34205;BME280;20471;49.680;20.074;2023-06-14T11:45:11;97052.10;;;24.26;51.65
34205;BME280;20471;49.680;20.074;2023-06-14T11:47:39;97046.31;;;24.39;50.98
34205;BME280;20471;49.680;20.074;2023-06-14T11:50:08;97042.66;;;24.54;50.32
34205;BME280;20471;49.680;20.074;2023-06-14T11:52:36;97046.68;;;24.67;49.70
34205;BME280;20471;49.680;20.074;2023-06-14T11:55:04;97047.41;;;24.83;48.87
34205;BME280;20471;49.680;20.074;2023-06-14T11:57:34;97044.92;;;25.00;47.99
34205;BME280;20471;49.680;20.074;2023-06-14T12:00:07;97045.19;;;25.08;47.79
34205;BME280;20471;49.680;20.074;2023-06-14T12:02:38;97053.46;;;24.86;47.58
34205;BME280;20471;49.680;20.074;2023-06-14T12:05:07;97054.33;;;24.63;47.09
34205;BME280;20471;49.680;20.074;2023-06-14T12:07:37;97045.61;;;24.63;47.67
34205;BME280;20471;49.680;20.074;2023-06-14T12:10:07;97046.91;;;24.78;47.34
34205;BME280;20471;49.680;20.074;2023-06-14T12:12:38;97042.73;;;25.07;47.15
34205;BME280;20471;49.680;20.074;2023-06-14T12:15:06;97038.35;;;25.34;46.69
34205;BME280;20471;49.680;20.074;2023-06-14T12:17:35;97033.86;;;25.43;46.59
34205;BME280;20471;49.680;20.074;2023-06-14T12:20:10;97033.71;;;25.31;46.12
34205;BME280;20471;49.680;20.074;2023-06-14T12:22:37;97028.87;;;25.46;45.59
34205;BME280;20471;49.680;20.074;2023-06-14T12:25:04;97027.49;;;25.52;45.13
34205;BME280;20471;49.680;20.074;2023-06-14T12:27:31;97026.35;;;25.63;44.88
34205;BME280;20471;49.680;20.074;2023-06-14T12:30:02;97024.06;;;25.52;44.34
34205;BME280;20471;49.680;20.074;2023-06-14T12:32:30;97030.81;;;25.35;43.97
34205;BME280;20471;49.680;20.074;2023-06-14T12:34:57;97024.87;;;25.25;43.71
34205;BME280;20471;49.680;20.074;2023-06-14T12:37:23;97022.63;;;25.31;44.07
34205;BME280;20471;49.680;20.074;2023-06-14T12:39:50;97026.98;;;25.44;43.76
34205;BME280;20471;49.680;20.074;2023-06-14T12:42:17;97027.84;;;25.37;43.43
34205;BME280;20471;49.680;20.074;2023-06-14T12:44:45;97025.38;;;25.32;43.74
34205;BME280;20471;49.680;20.074;2023-06-14T12:47:11;97022.71;;;25.32;43.53
34205;BME280;20471;49.680;20.074;2023-06-14T12:49:39;97021.23;;;25.12;43.77
34205;BME280;20471;49.680;20.074;2023-06-14T12:52:07;97017.42;;;24.97;44.08
34205;BME280;20471;49.680;20.074;2023-06-14T12:54:34;97014.19;;;24.98;43.89
34205;BME280;20471;49.680;20.074;2023-06-14T12:57:01;97011.70;;;25.11;43.46
34205;BME280;20471;49.680;20.074;2023-06-14T12:59:29;97006.34;;;25.18;43.02
34205;BME280;20471;49.680;20.074;2023-06-14T13:02:10;97001.71;;;25.22;43.17
34205;BME280;20471;49.680;20.074;2023-06-14T13:04:37;96998.31;;;25.29;42.96
34205;BME280;20471;49.680;20.074;2023-06-14T13:07:04;96994.41;;;25.28;42.76
34205;BME280;20471;49.680;20.074;2023-06-14T13:09:31;97000.33;;;25.18;42.99
34205;BME280;20471;49.680;20.074;2023-06-14T13:11:58;96999.70;;;24.94;42.61
34205;BME280;20471;49.680;20.074;2023-06-14T13:14:25;96998.24;;;24.90;42.28
34205;BME280;20471;49.680;20.074;2023-06-14T13:16:52;97001.80;;;24.91;42.14
34205;BME280;20471;49.680;20.074;2023-06-14T13:19:19;97005.32;;;25.03;42.05
34205;BME280;20471;49.680;20.074;2023-06-14T13:21:45;97008.98;;;25.04;42.20
34205;BME280;20471;49.680;20.074;2023-06-14T13:24:12;97007.13;;;25.06;41.91
34205;BME280;20471;49.680;20.074;2023-06-14T13:26:39;97005.24;;;24.95;42.22